Time;durP1;ratioP1;P1;durP2;ratioP2;P2;SDS_P1;SDS_P2;PMS_P1;PMS_P2;Temp;Humidity;BMP_temperature;BMP_pressure;BME280_temperature;BME280_humidity;BME280_pressure;Samples;Min_cycle;Max_cycle;Signal;HPM_P1;HPM_P2
2021/08/08 00:00:56;;;;;;;7.60;3.40;;;;;;;22.76;47.77;98282.00;5029196;28;20045;-92
2021/08/08 00:03:22;;;;;;;8.68;3.58;;;;;;;22.71;48.54;98276.13;5032255;28;20383;-91
2021/08/08 00:05:48;;;;;;;7.43;3.20;;;;;;;22.61;47.88;98255.38;5034875;28;20088;-91
2021/08/08 00:08:14;;;;;;;6.28;3.60;;;;;;;22.73;47.94;98271.44;5049254;28;20033;-92
2021/08/08 00:10:41;;;;;;;7.55;3.85;;;;;;;22.66;47.64;98264.84;5049081;28;20040;-92
2021/08/08 00:13:07;;;;;;;6.38;3.60;;;;;;;22.69;48.03;98278.13;5051050;28;20055;-92
2021/08/08 00:15:34;;;;;;;9.43;3.55;;;;;;;22.54;48.20;98266.72;5048503;28;20056;-92
2021/08/08 00:18:02;;;;;;;8.38;3.58;;;;;;;22.43;48.34;98258.63;5052362;28;20037;-91
2021/08/08 00:20:28;;;;;;;9.50;3.50;;;;;;;22.52;47.94;98279.53;5051684;28;20041;-91
2021/08/08 00:22:54;;;;;;;7.68;3.70;;;;;;;22.54;47.99;98282.13;5047957;28;20286;-91
2021/08/08 00:25:20;;;;;;;7.70;3.95;;;;;;;22.49;48.13;98278.94;5045866;28;20145;-92
2021/08/08 00:27:47;;;;;;;7.07;3.53;;;;;;;22.32;48.06;98258.69;5049044;28;20060;-90
2021/08/08 00:30:13;;;;;;;9.38;4.15;;;;;;;22.31;48.11;98252.38;5052682;28;20052;-92
2021/08/08 00:32:39;;;;;;;6.72;3.58;;;;;;;22.38;48.18;98266.31;5052251;28;20390;-91
2021/08/08 00:35:06;;;;;;;8.93;3.65;;;;;;;22.42;47.95;98266.88;5054058;28;20033;-89
2021/08/08 00:37:32;;;;;;;8.40;3.88;;;;;;;22.29;48.13;98246.25;5050153;28;20041;-89
2021/08/08 00:39:58;;;;;;;9.90;3.25;;;;;;;22.39;48.20;98270.72;5048158;28;20041;-92
2021/08/08 00:42:24;;;;;;;9.57;3.58;;;;;;;22.33;47.99;98258.53;5050000;28;20041;-91
2021/08/08 00:44:51;;;;;;;10.55;3.53;;;;;;;22.33;47.45;98247.69;5049055;28;20038;-91
2021/08/08 00:47:16;;;;;;;10.65;3.65;;;;;;;22.40;47.45;98249.91;5049228;28;20128;-90
2021/08/08 00:49:42;;;;;;;6.75;3.42;;;;;;;22.46;47.05;98273.78;5053991;28;20447;-90
2021/08/08 00:52:08;;;;;;;8.30;3.90;;;;;;;22.33;47.30;98250.41;5054644;28;20045;-90
2021/08/08 00:54:34;;;;;;;9.00;3.90;;;;;;;22.49;46.73;98268.13;5054074;28;20087;-91
2021/08/08 00:57:00;;;;;;;8.63;3.35;;;;;;;22.49;46.37;98270.81;5055292;28;20120;-91
2021/08/08 00:59:26;;;;;;;7.93;3.30;;;;;;;22.31;46.06;98237.97;5054579;28;20069;-90
2021/08/08 01:01:54;;;;;;;7.70;3.60;;;;;;;22.25;46.24;98233.06;5053523;28;20041;-90
2021/08/08 01:04:54;;;;;;;;;;;;;;;22.37;46.52;98259.16;5055781;28;20166;-91
2021/08/08 01:07:26;;;;;;;6.60;3.55;;;;;;;22.28;46.06;98244.53;5036322;28;19921;-91
2021/08/08 01:09:56;;;;;;;7.05;3.45;;;;;;;22.33;45.91;98258.53;5044003;28;20042;-89
2021/08/08 01:12:22;;;;;;;7.95;3.40;;;;;;;22.36;45.63;98268.28;5048265;28;20525;-90
2021/08/08 01:14:50;;;;;;;8.20;3.38;;;;;;;22.33;45.60;98260.38;5047745;28;20066;-92
2021/08/08 01:17:19;;;;;;;6.25;3.22;;;;;;;22.25;45.29;98246.63;5044565;28;20043;-92
2021/08/08 01:19:50;;;;;;;;;;;;;;;22.41;45.22;98259.75;5048259;28;20049;-90
2021/08/08 01:22:18;;;;;;;10.88;3.25;;;;;;;22.29;44.05;98235.44;5046617;28;20302;-91
2021/08/08 01:24:46;;;;;;;6.55;3.28;;;;;;;22.39;44.13;98242.78;5045604;28;20036;-91
2021/08/08 01:27:12;;;;;;;9.15;3.78;;;;;;;22.45;43.93;98253.09;5047130;28;20208;-90
2021/08/08 01:29:38;;;;;;;5.13;3.08;;;;;;;22.42;44.03;98245.22;5051782;28;20048;-90
2021/08/08 01:32:04;;;;;;;7.50;3.75;;;;;;;22.33;44.14;98245.00;5047209;28;20048;-90
2021/08/08 01:34:30;;;;;;;6.35;3.50;;;;;;;22.37;43.59;98252.88;5050469;28;20124;-90
2021/08/08 01:36:56;;;;;;;6.97;3.40;;;;;;;22.22;43.65;98236.91;5043329;28;20507;-91
2021/08/08 01:39:23;;;;;;;6.35;3.15;;;;;;;22.20;43.98;98230.72;5045782;28;20052;-93
2021/08/08 01:41:52;;;;;;;7.90;3.63;;;;;;;22.07;44.49;98220.03;5046641;28;20037;-92
2021/08/08 01:44:20;;;;;;;9.15;3.22;;;;;;;22.21;44.19;98254.13;5043394;28;20072;-90
2021/08/08 01:46:51;;;;;;;6.47;3.30;;;;;;;22.06;44.55;98233.72;5040183;28;20132;-92
2021/08/08 01:49:19;;;;;;;8.48;3.30;;;;;;;22.05;44.18;98242.84;5047296;28;20041;-93
2021/08/08 01:51:45;;;;;;;9.00;3.58;;;;;;;21.92;44.84;98224.91;5040719;28;20097;-91
2021/08/08 01:54:11;;;;;;;8.85;3.63;;;;;;;21.90;44.61;98216.06;5045976;28;20569;-92
2021/08/08 01:56:37;;;;;;;6.43;3.00;;;;;;;21.97;44.37;98232.66;5045081;28;20047;-92
2021/08/08 01:59:06;;;;;;;5.97;3.28;;;;;;;21.98;44.24;98231.66;5042339;28;20104;-91
2021/08/08 02:01:32;;;;;;;8.40;4.00;;;;;;;22.01;44.63;98223.28;5044260;28;20064;-90
2021/08/08 02:03:57;;;;;;;7.38;3.67;;;;;;;21.88;44.18;98203.59;5040052;28;20037;-91
2021/08/08 02:06:23;;;;;;;7.95;3.53;;;;;;;22.07;43.83;98239.00;5051048;28;20049;-92
2021/08/08 02:08:49;;;;;;;6.90;3.70;;;;;;;22.02;43.83;98230.41;5053439;28;20037;-89
2021/08/08 02:11:15;;;;;;;8.23;3.38;;;;;;;21.85;44.27;98223.66;5052948;28;20064;-90
2021/08/08 02:13:41;;;;;;;10.85;3.80;;;;;;;21.74;44.10;98215.59;5053008;28;20152;-87
2021/08/08 02:16:08;;;;;;;6.82;3.08;;;;;;;21.87;44.40;98237.09;5049483;28;20049;-91
2021/08/08 02:18:34;;;;;;;6.55;3.72;;;;;;;21.87;44.04;98240.66;5054144;28;20051;-91
2021/08/08 02:20:59;;;;;;;6.30;3.53;;;;;;;21.91;43.88;98242.13;5053526;28;20402;-91
2021/08/08 02:23:25;;;;;;;6.38;3.72;;;;;;;21.87;44.25;98240.66;5053961;28;21385;-92
2021/08/08 02:25:51;;;;;;;7.22;3.78;;;;;;;21.84;43.73;98235.50;5053428;28;20141;-91
2021/08/08 02:28:18;;;;;;;11.75;4.10;;;;;;;21.68;44.25;98219.63;5051953;28;20468;-92
2021/08/08 02:30:44;;;;;;;6.22;3.15;;;;;;;21.70;44.42;98231.19;5050065;28;20052;-91
2021/08/08 02:33:11;;;;;;;8.23;3.53;;;;;;;21.68;45.49;98244.00;5051563;28;20040;-92
2021/08/08 02:35:37;;;;;;;8.63;2.90;;;;;;;21.67;44.80;98249.53;5049855;28;20090;-90
2021/08/08 02:38:03;;;;;;;6.93;3.38;;;;;;;21.57;44.34;98232.31;5051979;28;20037;-91
2021/08/08 02:40:28;;;;;;;6.45;3.45;;;;;;;21.68;44.38;98252.09;5052357;28;20083;-91
2021/08/08 02:42:54;;;;;;;6.50;3.00;;;;;;;21.48;45.24;98223.09;5053718;28;20021;-91
2021/08/08 02:45:20;;;;;;;8.75;3.80;;;;;;;21.45;44.65;98224.22;5051696;28;20037;-87
2021/08/08 02:47:46;;;;;;;7.38;3.17;;;;;;;21.53;44.55;98235.28;5052214;28;20041;-89
2021/08/08 02:50:13;;;;;;;6.38;3.25;;;;;;;21.54;45.33;98253.22;5057471;28;20041;-90
2021/08/08 02:52:41;;;;;;;8.20;3.70;;;;;;;21.48;45.78;98251.00;5057365;28;20099;-91
2021/08/08 02:55:09;;;;;;;7.10;3.17;;;;;;;21.48;45.15;98256.41;5038423;28;20603;-89
2021/08/08 02:57:35;;;;;;;8.50;3.92;;;;;;;21.54;44.80;98255.94;5057215;28;20095;-90
2021/08/08 03:00:01;;;;;;;8.30;3.67;;;;;;;21.52;45.56;98247.09;5049035;28;20041;-92
2021/08/08 03:02:26;;;;;;;7.78;3.28;;;;;;;21.58;45.39;98258.38;5050284;28;20043;-91
2021/08/08 03:04:52;;;;;;;6.35;3.30;;;;;;;21.39;45.64;98224.69;5048518;28;20071;-90
2021/08/08 03:07:19;;;;;;;6.10;3.67;;;;;;;21.46;45.80;98252.97;5048147;28;20080;-89
2021/08/08 03:09:45;;;;;;;4.57;3.10;;;;;;;21.46;46.21;98258.38;5043624;28;20061;-90
2021/08/08 03:12:11;;;;;;;6.45;3.40;;;;;;;21.39;46.44;98259.84;5046927;28;20076;-90
2021/08/08 03:14:37;;;;;;;4.70;3.10;;;;;;;21.25;46.46;98238.44;5047843;28;20033;-91
2021/08/08 03:17:03;;;;;;;6.88;3.38;;;;;;;21.29;47.26;98256.13;5043406;28;20120;-92
2021/08/08 03:19:29;;;;;;;8.63;3.70;;;;;;;21.24;47.56;98242.13;5046573;28;20394;-90
2021/08/08 03:21:54;;;;;;;7.55;3.45;;;;;;;21.35;47.45;98266.47;5045924;28;20040;-90
2021/08/08 03:24:22;;;;;;;7.00;4.00;;;;;;;21.24;47.06;98242.97;5048500;28;20067;-91
2021/08/08 03:26:47;;;;;;;7.07;3.42;;;;;;;21.13;47.33;98224.91;5047921;28;20052;-90
2021/08/08 03:29:13;;;;;;;7.15;3.35;;;;;;;21.34;46.97;98262.91;5047684;28;20502;-92
2021/08/08 03:31:41;;;;;;;6.72;3.50;;;;;;;21.34;47.25;98262.06;5041756;28;20046;-89
2021/08/08 03:34:07;;;;;;;6.00;3.13;;;;;;;21.27;47.35;98241.88;5041437;28;20080;-91
2021/08/08 03:36:33;;;;;;;8.05;3.97;;;;;;;21.28;48.18;98266.09;5042747;28;20069;-92
2021/08/08 03:38:59;;;;;;;7.45;3.50;;;;;;;21.33;47.53;98269.28;5047411;28;20033;-89
2021/08/08 03:41:26;;;;;;;8.95;3.70;;;;;;;21.35;47.70;98271.88;5046263;28;20041;-91
2021/08/08 03:43:52;;;;;;;7.82;3.47;;;;;;;21.30;47.53;98258.72;5048468;28;20433;-91
2021/08/08 03:46:18;;;;;;;7.78;3.78;;;;;;;21.32;46.97;98256.75;5052223;28;20037;-91
2021/08/08 03:48:44;;;;;;;8.25;3.95;;;;;;;21.46;47.59;98282.72;5051870;28;20813;-90
2021/08/08 03:51:09;;;;;;;8.32;3.50;;;;;;;21.32;47.23;98256.75;5042152;28;20091;-91
2021/08/08 03:53:35;;;;;;;9.90;4.47;;;;;;;21.47;48.01;98275.47;5047978;28;20491;-90
2021/08/08 03:56:01;;;;;;;7.60;3.63;;;;;;;21.30;47.67;98255.16;5052277;28;20064;-93
2021/08/08 04:01:24;;;;;;;9.25;3.38;;;;;;;21.49;47.35;98285.22;5088654;27;20129;-92
2021/08/08 04:03:50;;;;;;;8.38;3.67;;;;;;;21.49;48.00;98296.03;5090275;28;20067;-90
2021/08/08 04:06:16;;;;;;;8.32;3.35;;;;;;;21.44;47.69;98287.41;5090228;28;20497;-89
2021/08/08 04:08:42;;;;;;;6.20;3.20;;;;;;;21.41;47.99;98293.06;5090246;28;20074;-92
2021/08/08 04:11:11;;;;;;;7.50;3.60;;;;;;;21.44;48.23;98294.66;5091404;28;20036;-93
2021/08/08 04:13:37;;;;;;;8.05;3.60;;;;;;;21.29;49.03;98291.28;5091235;28;20044;-89
2021/08/08 04:16:03;;;;;;;7.85;3.70;;;;;;;21.33;48.61;98296.34;5089665;28;20135;-91
2021/08/08 04:18:30;;;;;;;6.95;3.70;;;;;;;21.28;48.35;98297.69;5089751;28;20039;-92
2021/08/08 04:20:56;;;;;;;6.50;3.63;;;;;;;21.29;48.69;98300.25;5090462;28;20056;-90
2021/08/08 04:23:22;;;;;;;6.53;3.40;;;;;;;21.32;48.96;98299.19;5090387;28;20573;-93
2021/08/08 04:25:48;;;;;;;8.32;3.80;;;;;;;21.37;48.88;98312.34;5090158;28;20031;-90
2021/08/08 04:28:13;;;;;;;9.82;3.90;;;;;;;21.25;49.19;98290.69;5090493;28;20502;-92
2021/08/08 04:30:39;;;;;;;6.00;3.75;;;;;;;21.28;49.26;98309.38;5088174;28;20076;-90
2021/08/08 04:33:05;;;;;;;9.70;3.72;;;;;;;21.19;49.76;98296.56;5089744;28;20886;-93
2021/08/08 04:35:33;;;;;;;7.00;3.50;;;;;;;21.25;50.04;98309.63;5091131;28;20048;-92
2021/08/08 04:38:00;;;;;;;5.50;3.60;;;;;;;21.19;50.27;98310.09;5090998;28;20063;-91
2021/08/08 04:40:26;;;;;;;7.40;3.78;;;;;;;21.10;50.86;98310.78;5088179;28;20044;-91
2021/08/08 04:42:52;;;;;;;7.07;3.78;;;;;;;20.98;51.38;98301.78;5089897;28;20404;-92
2021/08/08 04:45:19;;;;;;;9.95;4.18;;;;;;;20.99;51.75;98306.25;5085980;28;20037;-92
2021/08/08 04:47:45;;;;;;;7.72;3.50;;;;;;;21.03;52.10;98323.91;5089286;28;20123;-93
2021/08/08 04:50:11;;;;;;;7.22;3.92;;;;;;;21.02;52.51;98329.47;5084108;28;20072;-92
2021/08/08 04:52:39;;;;;;;8.88;3.97;;;;;;;20.91;52.81;98322.19;5089371;28;20043;-90
2021/08/08 04:55:07;;;;;;;8.85;3.60;;;;;;;20.95;52.66;98329.06;5088996;28;20470;-89
2021/08/08 04:57:33;;;;;;;8.80;3.83;;;;;;;20.96;52.61;98321.81;5089521;28;20052;-92
2021/08/08 04:59:59;;;;;;;8.32;4.28;;;;;;;20.95;52.83;98320.97;5087428;28;20042;-92
2021/08/08 05:02:25;;;;;;;8.57;4.00;;;;;;;20.94;53.29;98319.22;5089327;28;20039;-91
2021/08/08 05:04:51;;;;;;;6.85;3.67;;;;;;;20.96;53.22;98328.09;5088999;28;20390;-91
2021/08/08 05:07:17;;;;;;;7.18;3.65;;;;;;;21.06;52.78;98337.22;5089016;28;20040;-91
2021/08/08 05:09:44;;;;;;;5.97;3.83;;;;;;;21.01;53.31;98319.63;5088833;28;20051;-92
2021/08/08 05:12:10;;;;;;;9.60;4.45;;;;;;;21.07;53.11;98321.84;5078680;28;20048;-91
2021/08/08 05:14:38;;;;;;;5.90;3.63;;;;;;;21.23;53.43;98340.44;5075750;28;20494;-92
2021/08/08 05:17:03;;;;;;;8.50;4.38;;;;;;;21.36;52.77;98340.34;5071685;28;20060;-93
2021/08/08 05:19:29;;;;;;;8.75;4.07;;;;;;;21.51;52.53;98328.34;5075405;28;20502;-92
2021/08/08 05:21:55;;;;;;;8.05;3.92;;;;;;;21.75;52.72;98339.06;5075571;28;20032;-91
2021/08/08 05:24:21;;;;;;;9.48;4.13;;;;;;;22.07;52.45;98341.03;5075464;28;20071;-93
2021/08/08 05:26:48;;;;;;;7.97;3.80;;;;;;;22.46;50.71;98325.25;5075532;28;20045;-92
2021/08/08 05:29:14;;;;;;;10.85;3.47;;;;;;;22.80;49.84;98322.44;5075250;28;20071;-93
2021/08/08 05:31:40;;;;;;;12.13;4.03;;;;;;;23.14;49.17;98329.44;5073678;28;20064;-91
2021/08/08 05:34:06;;;;;;;8.02;3.50;;;;;;;23.49;48.95;98316.53;5075084;28;20076;-92
2021/08/08 05:36:32;;;;;;;9.40;4.07;;;;;;;23.94;47.42;98329.75;5076649;28;20083;-91
2021/08/08 05:38:59;;;;;;;10.10;4.72;;;;;;;23.74;46.83;98307.06;5075726;28;20041;-92
2021/08/08 05:41:25;;;;;;;6.93;3.88;;;;;;;24.13;47.49;98315.41;5075792;28;20041;-93
2021/08/08 05:43:52;;;;;;;8.07;4.20;;;;;;;24.38;46.99;98309.47;5076374;28;20040;-93
2021/08/08 05:46:18;;;;;;;7.35;3.60;;;;;;;24.67;45.41;98318.69;5069891;28;20043;-92
2021/08/08 05:48:44;;;;;;;6.47;3.50;;;;;;;24.97;43.63;98320.41;5075024;28;20394;-92
2021/08/08 05:51:10;;;;;;;8.13;3.97;;;;;;;25.23;45.04;98337.03;5075004;28;20037;-92
2021/08/08 05:53:35;;;;;;;8.00;4.07;;;;;;;25.25;44.75;98339.63;5074624;28;20044;-92
2021/08/08 05:56:01;;;;;;;8.20;3.95;;;;;;;25.51;42.78;98342.59;5074980;28;20074;-89
2021/08/08 05:58:28;;;;;;;8.55;3.72;;;;;;;25.54;43.28;98337.69;5075498;28;20148;-88
2021/08/08 06:00:55;;;;;;;8.75;3.92;;;;;;;25.79;41.20;98338.06;5072590;28;20425;-92
2021/08/08 06:03:21;;;;;;;7.70;3.75;;;;;;;26.01;42.01;98335.00;5075986;28;20043;-89
2021/08/08 06:05:47;;;;;;;10.15;3.55;;;;;;;26.18;40.03;98346.97;5073601;28;20123;-92
2021/08/08 06:08:12;;;;;;;8.35;3.78;;;;;;;26.30;38.94;98353.06;5075699;28;20067;-92
2021/08/08 06:10:39;;;;;;;7.93;4.18;;;;;;;26.29;38.94;98331.44;5076706;28;20517;-91
2021/08/08 06:13:04;;;;;;;6.63;3.85;;;;;;;26.42;39.85;98346.41;5075971;28;20135;-93
2021/08/08 06:15:30;;;;;;;8.68;4.00;;;;;;;26.49;39.80;98359.44;5074195;28;20067;-93
2021/08/08 06:17:58;;;;;;;7.25;3.92;;;;;;;26.46;38.60;98346.97;5075309;28;20032;-89
2021/08/08 06:20:23;;;;;;;9.18;4.10;;;;;;;26.54;38.41;98360.69;5074999;28;20045;-90
2021/08/08 06:22:50;;;;;;;13.63;4.22;;;;;;;26.59;37.12;98360.28;5074370;28;20417;-91
2021/08/08 06:25:16;;;;;;;7.32;3.90;;;;;;;26.54;36.98;98341.59;5075341;28;20139;-91
2021/08/08 06:27:42;;;;;;;6.65;3.70;;;;;;;26.81;37.56;98359.81;5076219;28;20064;-92
2021/08/08 06:30:12;;;;;;;6.43;3.83;;;;;;;26.84;37.31;98345.88;5075196;28;20041;-91
2021/08/08 06:32:38;;;;;;;8.98;3.88;;;;;;;26.82;37.46;98345.16;5077099;28;20043;-90
2021/08/08 06:35:06;;;;;;;6.03;3.78;;;;;;;26.89;37.22;98350.88;5076046;28;20040;-92
2021/08/08 06:37:32;;;;;;;8.68;3.78;;;;;;;26.90;36.59;98349.84;5075174;28;20103;-91
2021/08/08 06:39:58;;;;;;;7.10;3.80;;;;;;;26.98;36.25;98344.47;5075221;28;20040;-91
2021/08/08 06:42:24;;;;;;;9.48;4.00;;;;;;;27.08;36.43;98359.91;5073542;28;20532;-91
2021/08/08 06:44:50;;;;;;;5.63;3.40;;;;;;;27.17;36.71;98362.56;5071669;28;20043;-92
2021/08/08 06:47:16;;;;;;;7.22;3.78;;;;;;;27.24;36.63;98363.69;5073974;28;20059;-92
2021/08/08 06:49:42;;;;;;;7.15;3.80;;;;;;;27.32;36.33;98362.03;5074659;28;20044;-91
2021/08/08 06:52:09;;;;;;;7.45;3.85;;;;;;;27.39;36.48;98366.72;5074758;28;20546;-92
2021/08/08 06:54:35;;;;;;;8.20;4.00;;;;;;;27.51;36.01;98371.91;5073734;28;20041;-91
2021/08/08 06:57:01;;;;;;;7.40;3.83;;;;;;;27.56;35.94;98358.63;5074383;28;20055;-92
2021/08/08 06:59:30;;;;;;;9.10;4.38;;;;;;;27.75;35.86;98352.09;5074567;28;20045;-92
2021/08/08 07:01:55;;;;;;;;;;;;;;;27.91;35.43;98371.38;5072919;28;20095;-91
2021/08/08 07:04:21;;;;;;;7.78;3.63;;;;;;;28.03;35.50;98350.09;5073971;28;19963;-92
2021/08/08 07:06:47;;;;;;;9.07;4.55;;;;;;;28.15;35.46;98367.94;5073856;28;20555;-93
2021/08/08 07:09:14;;;;;;;7.97;3.88;;;;;;;27.95;35.46;98345.41;5073137;28;20105;-91
2021/08/08 07:11:40;;;;;;;7.93;3.97;;;;;;;28.11;36.07;98361.06;5071272;28;20444;-89
2021/08/08 07:14:06;;;;;;;7.75;4.00;;;;;;;27.88;35.67;98371.69;5072315;28;20044;-89
2021/08/08 07:16:32;;;;;;;9.98;4.15;;;;;;;27.26;38.29;98371.72;5070473;28;20482;-89
2021/08/08 07:18:57;;;;;;;12.85;4.10;;;;;;;27.68;37.57;98372.91;5073293;28;20032;-90
2021/08/08 07:21:23;;;;;;;8.98;3.83;;;;;;;27.98;37.34;98372.44;5072062;28;20127;-91
2021/08/08 07:23:49;;;;;;;13.70;3.92;;;;;;;28.25;36.77;98367.78;5074461;28;20044;-89
2021/08/08 07:26:16;;;;;;;11.20;3.92;;;;;;;28.64;35.70;98359.06;5072656;28;20036;-91
2021/08/08 07:28:42;;;;;;;7.65;4.05;;;;;;;28.85;35.84;98378.63;5072762;28;20375;-91
2021/08/08 07:31:07;;;;;;;8.32;4.10;;;;;;;28.74;35.45;98370.75;5071422;28;20043;-89
2021/08/08 07:33:33;;;;;;;5.03;3.67;;;;;;;28.94;35.71;98373.19;5072552;28;20106;-93
2021/08/08 07:35:59;;;;;;;8.60;3.92;;;;;;;28.82;35.90;98373.50;5072382;28;20444;-91
2021/08/08 07:38:25;;;;;;;9.45;3.72;;;;;;;28.84;36.52;98384.25;5072509;28;20120;-90
2021/08/08 07:40:51;;;;;;;7.82;3.95;;;;;;;28.80;37.29;98378.28;5070720;28;20039;-90
2021/08/08 07:43:18;;;;;;;10.20;4.00;;;;;;;28.88;36.36;98369.22;5073815;28;20055;-89
2021/08/08 07:45:44;;;;;;;5.47;3.63;;;;;;;28.83;36.33;98383.41;5067769;28;20094;-88
2021/08/08 07:48:10;;;;;;;8.38;3.85;;;;;;;28.93;36.67;98374.19;5071841;28;20094;-89
2021/08/08 07:50:36;;;;;;;6.55;4.07;;;;;;;29.26;35.39;98386.09;5071715;28;20044;-89
2021/08/08 07:53:01;;;;;;;7.80;3.83;;;;;;;29.16;35.55;98372.56;5071071;28;20037;-86
2021/08/08 07:55:27;;;;;;;8.85;3.72;;;;;;;29.49;34.50;98386.25;5071183;28;20062;-89
2021/08/08 07:57:53;;;;;;;8.15;3.60;;;;;;;29.34;35.57;98393.44;5073035;28;20048;-89
2021/08/08 08:00:20;;;;;;;7.60;3.70;;;;;;;29.67;34.53;98388.84;5068346;28;20813;-88
2021/08/08 08:02:49;;;;;;;7.97;3.72;;;;;;;29.83;34.43;98396.22;5072146;28;20041;-88
2021/08/08 08:05:15;;;;;;;7.43;4.03;;;;;;;29.95;33.86;98378.38;5071243;28;20045;-88
2021/08/08 08:07:41;;;;;;;5.60;3.80;;;;;;;30.12;33.18;98394.78;5071715;28;20127;-87
2021/08/08 08:10:08;;;;;;;8.35;4.70;;;;;;;30.24;32.39;98391.47;5071530;28;20037;-90
2021/08/08 08:12:33;;;;;;;7.60;3.75;;;;;;;30.24;33.23;98396.97;5072627;28;20040;-87
2021/08/08 08:14:59;;;;;;;7.97;4.05;;;;;;;30.42;33.15;98394.00;5067771;28;20861;-92
2021/08/08 08:17:26;;;;;;;9.25;3.90;;;;;;;29.99;33.60;98385.19;5072909;28;20091;-88
2021/08/08 08:19:52;;;;;;;9.30;4.07;;;;;;;29.92;34.17;98395.16;5071320;28;20096;-88
2021/08/08 08:22:18;;;;;;;10.20;4.53;;;;;;;30.19;33.87;98401.25;5072265;28;20561;-88
2021/08/08 08:24:44;;;;;;;6.95;3.67;;;;;;;30.41;34.02;98384.09;5071128;28;20033;-84
2021/08/08 08:27:09;;;;;;;6.95;3.70;;;;;;;30.66;32.77;98398.53;5071023;28;20441;-88
2021/08/08 08:29:35;;;;;;;9.55;3.75;;;;;;;30.67;32.60;98399.41;5072303;28;20044;-88
2021/08/08 08:32:01;;;;;;;6.53;4.00;;;;;;;30.94;32.45;98394.50;5065441;28;20037;-90
2021/08/08 08:34:32;;;;;;;7.07;3.90;;;;;;;31.21;32.52;98390.38;5072501;28;20086;-87
2021/08/08 08:36:57;;;;;;;9.85;4.15;;;;;;;31.39;31.71;98395.56;5070913;28;20029;-89
2021/08/08 08:39:23;;;;;;;7.32;4.28;;;;;;;31.04;33.11;98406.09;5072784;28;20805;-93
2021/08/08 08:41:52;;;;;;;8.38;4.22;;;;;;;30.74;33.70;98416.03;5071387;28;20512;-90
2021/08/08 08:44:19;;;;;;;8.43;3.92;;;;;;;30.92;33.90;98411.13;5071504;28;20398;-90
2021/08/08 08:46:47;;;;;;;6.78;3.88;;;;;;;30.96;34.29;98414.38;5069466;28;20548;-91
2021/08/08 08:49:18;;;;;;;9.10;4.20;;;;;;;31.30;33.58;98411.25;5074893;28;20070;-89
2021/08/08 08:51:53;;;;;;;13.68;4.70;;;;;;;31.42;32.79;98409.78;5074973;28;20123;-90
2021/08/08 08:54:20;;;;;;;10.55;4.50;;;;;;;31.60;33.16;98412.25;5074672;28;20044;-90
2021/08/08 08:56:46;;;;;;;9.00;3.90;;;;;;;31.61;33.60;98393.84;5074360;28;20079;-90
2021/08/08 08:59:12;;;;;;;7.20;4.07;;;;;;;31.46;34.32;98410.28;5075887;28;20054;-89
2021/08/08 09:01:39;;;;;;;7.50;3.85;;;;;;;31.32;33.79;98414.66;5072636;28;20227;-87
2021/08/08 09:04:05;;;;;;;10.25;4.75;;;;;;;31.59;34.48;98402.28;5074316;28;20569;-89
2021/08/08 09:06:31;;;;;;;9.48;3.40;;;;;;;31.69;34.77;98413.88;5075712;28;20132;-88
2021/08/08 09:09:01;;;;;;;7.90;4.40;;;;;;;31.53;32.41;98414.00;5074303;28;20134;-90
2021/08/08 09:11:37;;;;;;;10.52;4.88;;;;;;;31.55;34.26;98422.06;5073462;28;21010;-89
2021/08/08 09:14:03;;;;;;;7.85;4.45;;;;;;;31.64;34.55;98405.34;5072387;28;20056;-89
2021/08/08 09:16:35;;;;;;;11.07;4.90;;;;;;;31.90;34.20;98426.06;5071142;28;20037;-90
2021/08/08 09:19:01;;;;;;;8.70;4.60;;;;;;;31.50;34.77;98423.47;5072188;28;20033;-90
2021/08/08 09:21:28;;;;;;;12.05;4.05;;;;;;;31.75;34.92;98419.66;5074779;28;20032;-91
2021/08/08 09:23:59;;;;;;;11.27;4.47;;;;;;;31.93;34.57;98425.69;5072469;28;20053;-90
2021/08/08 09:26:31;;;;;;;11.48;4.10;;;;;;;31.37;34.79;98427.84;5071805;28;20048;-90
2021/08/08 09:29:08;;;;;;;12.38;4.57;;;;;;;31.71;34.67;98436.53;5070366;28;20037;-88
2021/08/08 09:31:40;;;;;;;16.30;5.10;;;;;;;32.11;33.36;98425.38;5068281;28;20090;-89
2021/08/08 09:34:07;;;;;;;7.88;4.05;;;;;;;32.24;33.08;98406.31;5072922;28;20466;-89
2021/08/08 09:36:40;;;;;;;11.57;5.47;;;;;;;32.48;32.91;98423.59;5075304;28;20113;-90
2021/08/08 09:39:06;;;;;;;9.43;4.47;;;;;;;31.65;33.84;98434.53;5074396;28;21075;-91
2021/08/08 09:41:34;;;;;;;12.00;4.90;;;;;;;31.75;33.80;98436.16;5074868;28;20516;-91
2021/08/08 09:44:06;;;;;;;6.10;4.25;;;;;;;31.91;33.37;98445.13;5076169;28;20025;-90
2021/08/08 09:46:35;;;;;;;8.82;4.60;;;;;;;32.27;33.17;98447.22;5071067;28;20068;-90
2021/08/08 09:49:12;;;;;;;6.93;4.18;;;;;;;32.59;32.88;98449.81;5074108;28;20044;-90
2021/08/08 09:51:48;;;;;;;9.70;4.30;;;;;;;32.80;32.79;98452.66;5073594;28;20037;-86
2021/08/08 09:54:14;;;;;;;9.25;4.63;;;;;;;32.83;32.36;98460.50;5075227;28;20032;-89
2021/08/08 09:56:41;;;;;;;12.45;4.82;;;;;;;32.89;33.16;98454.25;5074335;28;20144;-90
2021/08/08 09:59:07;;;;;;;8.80;4.20;;;;;;;33.00;33.16;98452.88;5073274;28;20048;-90
2021/08/08 10:01:37;;;;;;;13.75;4.93;;;;;;;32.89;34.09;98443.22;5071180;28;20033;-88
2021/08/08 10:06:40;;;;;;;7.30;4.07;;;;;;;33.03;34.54;98448.88;5226496;22;20046;-92
2021/08/08 10:09:06;;;;;;;9.77;4.03;;;;;;;32.92;34.45;98450.25;5011781;28;20063;-90
2021/08/08 10:11:33;;;;;;;8.52;4.22;;;;;;;33.22;34.46;98445.53;5014930;28;20038;-89
2021/08/08 10:16:57;;;;;;;8.48;4.35;;;;;;;33.44;34.30;98445.56;5088809;27;20902;-88
2021/08/08 10:19:25;;;;;;;11.80;5.00;;;;;;;32.81;35.55;98443.31;5069655;28;20055;-90
2021/08/08 10:21:51;;;;;;;10.70;4.70;;;;;;;32.48;35.99;98449.19;5073271;28;20093;-90
2021/08/08 10:24:18;;;;;;;14.07;5.28;;;;;;;33.26;35.06;98457.91;5068994;28;21474;-88
2021/08/08 10:26:44;;;;;;;10.77;4.53;;;;;;;33.12;34.98;98442.28;5071780;28;20601;-87
2021/08/08 10:29:10;;;;;;;8.88;4.72;;;;;;;32.85;35.46;98439.13;5068986;28;20049;-90
2021/08/08 10:31:36;;;;;;;10.23;4.68;;;;;;;32.78;35.45;98429.09;5065156;28;20060;-88
2021/08/08 10:34:04;;;;;;;11.57;4.65;;;;;;;32.98;35.49;98454.13;5068260;28;20037;-90
2021/08/08 10:36:32;;;;;;;14.00;4.72;;;;;;;33.69;34.10;98454.34;5069442;28;20131;-88
2021/08/08 10:39:10;;;;;;;9.10;4.60;;;;;;;33.74;33.84;98443.56;5068740;28;20039;-88
2021/08/08 10:41:36;;;;;;;;;;;;;;;33.58;33.79;98450.19;5067327;28;20044;-90
2021/08/08 10:44:09;;;;;;;9.25;4.30;;;;;;;32.66;35.99;98446.13;5067658;28;20332;-89
2021/08/08 10:46:46;;;;;;;8.07;4.55;;;;;;;31.84;38.02;98446.06;5065429;28;20047;-88
2021/08/08 10:49:24;;;;;;;11.18;4.93;;;;;;;32.67;36.82;98450.56;5066777;28;20037;-89
2021/08/08 10:51:56;;;;;;;13.10;5.40;;;;;;;32.51;37.14;98459.84;5068848;28;20047;-91
2021/08/08 10:54:22;;;;;;;8.73;4.60;;;;;;;32.00;38.75;98458.84;5068663;28;20044;-91
2021/08/08 10:56:48;;;;;;;9.32;4.78;;;;;;;31.78;38.79;98458.66;5068247;28;20125;-89
2021/08/08 10:59:16;;;;;;;8.52;4.80;;;;;;;31.68;39.64;98439.66;5067684;28;20159;-89
2021/08/08 11:01:42;;;;;;;11.55;4.97;;;;;;;32.58;37.70;98456.38;5065001;28;20071;-90
2021/08/08 11:04:08;;;;;;;10.63;5.15;;;;;;;32.77;37.88;98454.91;5070748;28;20469;-92
2021/08/08 11:06:36;;;;;;;11.68;5.80;;;;;;;31.58;39.29;98455.56;5070441;28;20044;-90
2021/08/08 11:09:04;;;;;;;12.32;5.20;;;;;;;31.42;40.01;98448.25;5070651;28;20047;-91
2021/08/08 11:11:31;;;;;;;;;;;;;;;32.68;38.26;98452.28;5066831;28;20033;-90
2021/08/08 11:14:08;;;;;;;10.32;4.65;;;;;;;33.32;36.38;98446.09;5069217;28;19927;-89
2021/08/08 11:16:34;;;;;;;11.67;4.97;;;;;;;33.33;35.14;98438.66;5062843;28;20048;-91
2021/08/08 11:19:00;;;;;;;7.97;4.25;;;;;;;33.74;34.77;98447.16;5067400;28;20036;-89
2021/08/08 11:21:26;;;;;;;9.63;4.57;;;;;;;33.71;34.68;98433.78;5066967;28;20048;-91
2021/08/08 11:23:55;;;;;;;10.93;4.75;;;;;;;33.12;36.09;98436.75;5068414;28;20036;-90
2021/08/08 11:26:20;;;;;;;8.20;4.82;;;;;;;32.74;36.27;98447.91;5065725;28;20037;-91
2021/08/08 11:28:50;;;;;;;12.38;6.53;;;;;;;32.20;36.98;98435.25;5055127;28;20090;-91
2021/08/08 11:31:18;;;;;;;8.82;5.53;;;;;;;32.36;36.41;98433.34;5048212;28;20040;-90
2021/08/08 11:33:44;;;;;;;;;;;;;;;32.71;36.52;98445.53;5054473;28;20602;-89
2021/08/08 11:36:10;;;;;;;12.20;4.93;;;;;;;33.10;35.65;98436.09;5055827;28;20015;-88
2021/08/08 11:38:36;;;;;;;11.70;5.22;;;;;;;32.91;36.53;98438.38;5055852;28;20037;-90
2021/08/08 11:41:03;;;;;;;11.23;5.28;;;;;;;32.85;36.03;98438.28;5055503;28;20047;-90